createdAt,value
2023-05-02T00:00:10.389Z,4.82
2023-05-02T00:03:13.916Z,5.05
2023-05-02T00:06:16.478Z,4.30
2023-05-02T00:09:19.267Z,5.45
2023-05-02T00:12:22.332Z,5.53
2023-05-02T00:15:25.621Z,5.22
2023-05-02T00:18:28.990Z,5.07
2023-05-02T00:21:32.280Z,3.72
2023-05-02T00:24:35.886Z,4.45
2023-05-02T00:27:39.125Z,5.15
2023-05-02T00:30:42.515Z,5.07
2023-05-02T00:33:45.445Z,4.72
2023-05-02T00:36:48.405Z,4.25
2023-05-02T00:39:51.003Z,4.88
2023-05-02T00:42:53.502Z,5.45
2023-05-02T00:45:56.304Z,5.97
2023-05-02T00:48:58.609Z,4.50
2023-05-02T00:52:01.254Z,5.15
2023-05-02T00:55:04.410Z,6.28
2023-05-02T00:58:07.355Z,5.50
2023-05-02T01:01:10.484Z,4.88
2023-05-02T01:04:13.182Z,6.43
2023-05-02T01:07:15.793Z,4.47
2023-05-02T01:10:17.841Z,4.68
2023-05-02T01:13:20.768Z,5.15
2023-05-02T01:16:23.075Z,4.85
2023-05-02T01:19:25.398Z,4.15
2023-05-02T01:22:28.153Z,4.65
2023-05-02T01:25:31.566Z,5.72
2023-05-02T01:28:33.947Z,4.65
2023-05-02T01:31:36.454Z,5.50
2023-05-02T01:34:39.652Z,4.47
2023-05-02T01:37:43.254Z,4.65
2023-05-02T01:40:46.648Z,4.10
2023-05-02T01:43:49.363Z,4.57
2023-05-02T01:46:51.636Z,3.92
2023-05-02T01:49:53.975Z,4.03
2023-05-02T01:52:56.420Z,3.90
2023-05-02T01:55:59.044Z,4.63
2023-05-02T01:59:01.989Z,4.25
2023-05-02T02:02:05.410Z,3.22
2023-05-02T02:05:08.699Z,3.08
2023-05-02T02:08:12.156Z,3.63
2023-05-02T02:11:14.994Z,3.33
2023-05-02T02:14:17.417Z,3.80
2023-05-02T02:17:20.510Z,3.00
2023-05-02T02:20:23.441Z,2.67
2023-05-02T02:23:26.781Z,2.08
2023-05-02T02:26:29.306Z,3.58
2023-05-02T02:29:31.664Z,4.10
2023-05-02T02:32:34.461Z,2.88
2023-05-02T02:35:37.609Z,3.05
2023-05-02T02:38:40.009Z,4.20
2023-05-02T02:41:43.082Z,2.65
2023-05-02T02:44:45.764Z,2.17
2023-05-02T02:47:48.861Z,2.17
2023-05-02T02:50:52.096Z,1.70
2023-05-02T02:53:55.641Z,2.70
2023-05-02T02:56:58.353Z,2.55
2023-05-02T03:00:00.885Z,1.90
2023-05-02T03:03:04.521Z,2.33
2023-05-02T03:06:08.152Z,2.42
2023-05-02T03:09:10.505Z,2.60
2023-05-02T03:12:13.329Z,1.92
2023-05-02T03:15:17.665Z,1.55
2023-05-02T03:18:21.017Z,1.98
2023-05-02T03:21:23.344Z,2.22
2023-05-02T03:24:27.353Z,3.13
2023-05-02T03:27:31.394Z,2.65
2023-05-02T03:30:35.771Z,2.70
2023-05-02T03:33:38.348Z,2.83
2023-05-02T03:36:41.607Z,3.53
2023-05-02T03:39:44.087Z,3.70
2023-05-02T03:42:46.804Z,2.90
2023-05-02T03:45:59.333Z,2.20
2023-05-02T03:49:02.236Z,3.45
2023-05-02T03:52:04.552Z,2.38
2023-05-02T03:55:10.044Z,6.00
2023-05-02T03:58:13.761Z,11.48
2023-05-02T04:01:16.541Z,21.65
2023-05-02T04:04:22.870Z,19.67
2023-05-02T04:07:27.805Z,13.23
2023-05-02T04:10:37.813Z,13.60
2023-05-02T04:13:43.639Z,13.38
2023-05-02T04:16:46.005Z,12.68
2023-05-02T04:19:48.850Z,10.35
2023-05-02T04:22:53.058Z,11.38
2023-05-02T04:25:56.108Z,8.63
2023-05-02T04:29:05.574Z,10.52
2023-05-02T04:32:08.326Z,9.23
2023-05-02T04:35:11.460Z,8.93
2023-05-02T04:38:14.841Z,9.00
2023-05-02T04:41:19.176Z,7.13
2023-05-02T04:44:27.572Z,7.60
2023-05-02T04:47:32.143Z,6.00
2023-05-02T04:50:35.580Z,5.90
2023-05-02T04:53:39.033Z,6.05
2023-05-02T04:56:42.141Z,5.53
2023-05-02T04:59:45.130Z,6.45
2023-05-02T05:02:48.755Z,5.82
2023-05-02T05:05:52.159Z,5.78
2023-05-02T05:08:57.858Z,4.45
2023-05-02T05:12:01.396Z,4.15
2023-05-02T05:15:06.969Z,3.97
2023-05-02T05:18:09.460Z,4.95
2023-05-02T05:21:12.161Z,3.95
2023-05-02T05:24:15.519Z,293.20
2023-05-02T05:27:18.782Z,181.60
2023-05-02T05:30:21.917Z,148.23
2023-05-02T05:33:24.697Z,108.38
2023-05-02T05:36:27.846Z,104.07
2023-05-02T05:39:30.116Z,83.43
2023-05-02T05:42:34.212Z,63.45
2023-05-02T05:45:40.925Z,50.45
2023-05-02T05:48:44.632Z,46.83
2023-05-02T05:51:47.762Z,36.42
2023-05-02T05:54:51.774Z,32.45
2023-05-02T05:57:54.235Z,29.38
2023-05-02T06:00:56.691Z,19.08
2023-05-02T06:03:59.504Z,19.25
2023-05-02T06:07:01.902Z,16.08
2023-05-02T06:10:05.355Z,12.60
2023-05-02T06:13:10.767Z,13.13
2023-05-02T06:16:17.110Z,10.57
2023-05-02T06:19:20.852Z,12.73
2023-05-02T06:22:23.466Z,9.32
2023-05-02T06:25:26.033Z,10.73
2023-05-02T06:28:28.874Z,9.07
2023-05-02T06:31:31.634Z,6.65
2023-05-02T06:34:34.010Z,7.95
2023-05-02T06:37:37.582Z,5.80
2023-05-02T06:40:40.627Z,6.75
2023-05-02T06:43:44.054Z,7.13
2023-05-02T06:46:47.828Z,6.57
2023-05-02T06:49:50.936Z,5.13
2023-05-02T06:52:53.710Z,7.03
2023-05-02T06:55:56.794Z,5.13
2023-05-02T06:59:00.690Z,5.07
2023-05-02T07:02:05.400Z,4.20
2023-05-02T07:05:08.798Z,5.00
2023-05-02T07:08:11.657Z,3.63
2023-05-02T07:11:14.373Z,4.90
2023-05-02T07:14:16.727Z,5.40
2023-05-02T07:17:19.452Z,4.03
2023-05-02T07:20:22.309Z,4.43
2023-05-02T07:23:25.078Z,3.90
2023-05-02T07:26:28.394Z,3.60
2023-05-02T07:29:31.369Z,4.60
2023-05-02T07:32:33.981Z,3.47
2023-05-02T07:35:37.658Z,5.03
2023-05-02T07:38:40.343Z,5.75
2023-05-02T07:41:43.523Z,4.75
2023-05-02T07:44:46.797Z,6.30
2023-05-02T07:47:49.959Z,6.32
2023-05-02T07:50:53.078Z,5.03
2023-05-02T07:53:55.775Z,6.85
2023-05-02T07:56:59.442Z,8.23
2023-05-02T08:00:03.084Z,10.25
2023-05-02T08:03:16.406Z,11.52
2023-05-02T08:06:20.316Z,8.02
2023-05-02T08:09:23.169Z,12.73
2023-05-02T08:12:26.249Z,11.32
2023-05-02T08:15:29.731Z,13.63
2023-05-02T08:18:32.838Z,11.90
2023-05-02T08:21:36.174Z,12.55
2023-05-02T08:24:39.179Z,10.13
2023-05-02T08:27:42.131Z,13.05
2023-05-02T08:30:44.250Z,11.35
2023-05-02T08:33:47.799Z,11.13
2023-05-02T08:36:51.609Z,10.55
2023-05-02T08:39:54.569Z,7.97
2023-05-02T08:42:57.350Z,5.28
2023-05-02T08:46:00.148Z,5.43
2023-05-02T08:49:02.537Z,8.05
2023-05-02T08:52:05.540Z,4.80
2023-05-02T08:55:08.333Z,5.97
2023-05-02T08:58:11.406Z,4.05
2023-05-02T09:01:14.145Z,6.65
2023-05-02T09:04:17.394Z,4.30
2023-05-02T09:07:20.342Z,4.70
2023-05-02T09:10:22.968Z,4.30
2023-05-02T09:13:26.274Z,6.07
2023-05-02T09:16:31.020Z,4.35
2023-05-02T09:19:34.274Z,4.97
2023-05-02T09:22:37.341Z,2.40
2023-05-02T09:25:39.881Z,2.53
2023-05-02T09:28:42.627Z,4.68
2023-05-02T09:31:55.474Z,5.32
2023-05-02T09:34:59.017Z,1.90
2023-05-02T09:38:02.366Z,3.83
2023-05-02T09:41:05.457Z,3.50
2023-05-02T09:44:08.617Z,2.22
2023-05-02T09:47:11.481Z,2.22
2023-05-02T09:50:14.332Z,3.20
2023-05-02T09:53:17.793Z,3.53
2023-05-02T09:56:23.309Z,2.78
2023-05-02T09:59:27.538Z,2.03
2023-05-02T10:02:30.171Z,2.78
2023-05-02T10:05:33.566Z,2.75
2023-05-02T10:08:37.483Z,1.77
2023-05-02T10:11:41.494Z,2.55
2023-05-02T10:14:44.770Z,1.88
2023-05-02T10:17:48.473Z,2.80
2023-05-02T10:20:50.812Z,2.33
2023-05-02T10:23:53.762Z,2.78
2023-05-02T10:26:56.576Z,2.17
2023-05-02T10:29:59.559Z,1.92
2023-05-02T10:33:02.117Z,2.75
2023-05-02T10:36:05.073Z,1.65
2023-05-02T10:39:07.768Z,2.35
2023-05-02T10:42:11.750Z,2.15
2023-05-02T10:45:15.205Z,1.88
2023-05-02T10:48:18.329Z,2.58
2023-05-02T10:51:21.578Z,2.45
2023-05-02T10:54:24.964Z,1.77
2023-05-02T10:57:28.462Z,1.70
2023-05-02T11:00:31.736Z,1.80
2023-05-02T11:03:35.717Z,2.28
2023-05-02T11:06:38.443Z,1.88
2023-05-02T11:09:42.204Z,1.85
2023-05-02T11:12:45.467Z,2.35
2023-05-02T11:15:48.186Z,1.55
2023-05-02T11:18:50.924Z,2.17
2023-05-02T11:21:53.576Z,2.05
2023-05-02T11:24:55.859Z,2.15
2023-05-02T11:27:58.992Z,2.75
2023-05-02T11:31:02.580Z,1.77
2023-05-02T11:34:05.778Z,2.25
2023-05-02T11:37:08.776Z,1.58
2023-05-02T11:40:10.783Z,2.22
2023-05-02T11:43:13.704Z,1.08
2023-05-02T11:46:16.407Z,3.00
2023-05-02T11:49:19.280Z,1.48
2023-05-02T11:52:23.049Z,2.10
2023-05-02T11:55:26.896Z,1.75
2023-05-02T11:58:29.671Z,1.25
2023-05-02T12:01:32.224Z,2.58
2023-05-02T12:04:34.732Z,2.35
2023-05-02T12:07:37.997Z,2.75
2023-05-02T12:10:41.548Z,2.58
2023-05-02T12:13:44.168Z,2.03
2023-05-02T12:16:47.039Z,2.95
2023-05-02T12:19:51.019Z,2.85
2023-05-02T12:22:53.554Z,2.92
2023-05-02T12:25:56.402Z,3.85
2023-05-02T12:28:59.194Z,1.27
2023-05-02T12:32:02.095Z,3.05
2023-05-02T12:35:05.315Z,3.22
2023-05-02T12:38:08.474Z,2.70
2023-05-02T12:41:11.242Z,2.00
2023-05-02T12:44:14.593Z,2.28
2023-05-02T12:47:17.657Z,2.75
2023-05-02T12:50:20.013Z,3.20
2023-05-02T12:53:22.287Z,2.17
2023-05-02T12:56:25.230Z,1.85
2023-05-02T12:59:28.079Z,3.88
2023-05-02T13:02:30.882Z,3.70
2023-05-02T13:05:33.619Z,2.83
2023-05-02T13:08:36.670Z,2.58
2023-05-02T13:11:39.369Z,2.63
2023-05-02T13:14:41.822Z,1.90
2023-05-02T13:17:44.929Z,3.25
2023-05-02T13:20:47.470Z,2.10
2023-05-02T13:23:50.114Z,2.35
2023-05-02T13:26:52.888Z,2.83
2023-05-02T13:29:56.104Z,2.92
2023-05-02T13:33:00.219Z,2.30
2023-05-02T13:36:03.841Z,3.70
2023-05-02T13:39:06.583Z,2.92
2023-05-02T13:42:09.640Z,2.42
2023-05-02T13:45:12.445Z,4.15
2023-05-02T13:48:14.611Z,3.13
2023-05-02T13:51:17.893Z,3.95
2023-05-02T13:54:21.276Z,3.30
2023-05-02T13:57:23.747Z,2.85
2023-05-02T14:00:26.238Z,4.55
2023-05-02T14:15:09.537Z,4.03
2023-05-02T14:29:49.948Z,3.60
2023-05-02T14:30:54.210Z,3.78
2023-05-02T14:32:52.798Z,2.42
2023-05-02T14:35:56.135Z,2.92
2023-05-02T14:38:58.651Z,3.03
2023-05-02T14:42:01.825Z,3.20
2023-05-02T14:45:05.613Z,3.88
2023-05-02T14:48:09.012Z,2.67
2023-05-02T14:51:12.053Z,3.97
2023-05-02T14:54:14.751Z,3.95
2023-05-02T14:57:17.355Z,2.95
2023-05-02T15:00:20.338Z,6.47
2023-05-02T15:03:22.797Z,4.45
2023-05-02T15:06:25.742Z,3.00
2023-05-02T15:09:28.605Z,2.92
2023-05-02T15:12:30.838Z,2.95
2023-05-02T15:15:33.551Z,3.60
2023-05-02T15:18:37.087Z,4.20
2023-05-02T15:21:39.802Z,2.85
2023-05-02T15:24:43.029Z,2.30
2023-05-02T15:27:45.710Z,3.92
2023-05-02T15:30:48.468Z,2.63
2023-05-02T15:33:51.239Z,2.72
2023-05-02T15:36:54.703Z,2.22
2023-05-02T15:39:58.633Z,2.30
2023-05-02T15:43:02.060Z,2.17
2023-05-02T15:46:04.884Z,1.70
2023-05-02T15:49:08.105Z,5.50
2023-05-02T15:52:11.196Z,3.22
2023-05-02T15:55:13.929Z,2.22
2023-05-02T15:58:17.051Z,2.15
2023-05-02T16:01:21.028Z,3.60
2023-05-02T16:04:24.617Z,1.95
2023-05-02T16:07:27.349Z,1.77
2023-05-02T16:10:30.400Z,3.25
2023-05-02T16:13:33.387Z,2.20
2023-05-02T16:16:36.010Z,2.20
2023-05-02T16:19:39.025Z,3.47
2023-05-02T16:22:42.408Z,3.55
2023-05-02T16:25:45.815Z,3.90
2023-05-02T16:28:49.274Z,3.55
2023-05-02T16:31:52.850Z,3.47
2023-05-02T16:34:55.053Z,4.05
2023-05-02T16:37:58.150Z,3.80
2023-05-02T16:41:00.627Z,5.40
2023-05-02T16:44:03.302Z,5.00
2023-05-02T16:47:05.975Z,3.20
2023-05-02T16:50:09.389Z,3.08
2023-05-02T16:53:12.877Z,3.45
2023-05-02T16:56:15.688Z,3.03
2023-05-02T16:59:18.453Z,3.25
2023-05-02T17:02:20.889Z,3.45
2023-05-02T17:05:23.921Z,3.78
2023-05-02T17:08:26.391Z,3.75
2023-05-02T17:11:29.241Z,3.15
2023-05-02T17:14:31.784Z,5.45
2023-05-02T17:17:34.347Z,2.80
2023-05-02T17:20:37.526Z,4.82
2023-05-02T17:23:40.642Z,4.00
2023-05-02T17:26:43.329Z,4.35
2023-05-02T17:29:46.237Z,2.10
2023-05-02T17:32:49.100Z,5.95
2023-05-02T17:35:51.526Z,2.63
2023-05-02T17:38:54.226Z,2.05
2023-05-02T17:41:57.045Z,1.90
2023-05-02T17:44:59.568Z,2.35
2023-05-02T17:48:03.904Z,2.40
2023-05-02T17:51:06.604Z,2.03
2023-05-02T17:54:09.255Z,1.27
2023-05-02T17:57:12.942Z,1.33
2023-05-02T18:00:15.339Z,1.80
2023-05-02T18:03:17.697Z,2.80
2023-05-02T18:06:20.512Z,1.63
2023-05-02T18:09:23.542Z,2.13
2023-05-02T18:12:26.494Z,1.40
2023-05-02T18:15:29.762Z,2.33
2023-05-02T18:18:33.350Z,1.58
2023-05-02T18:21:37.435Z,2.70
2023-05-02T18:24:41.306Z,4.03
2023-05-02T18:27:44.229Z,1.00
2023-05-02T18:30:47.253Z,1.05
2023-05-02T18:33:51.035Z,1.33
2023-05-02T18:36:54.304Z,1.63
2023-05-02T18:39:57.413Z,0.93
2023-05-02T18:43:00.198Z,1.52
2023-05-02T18:46:03.030Z,1.13
2023-05-02T18:49:07.092Z,2.05
2023-05-02T18:52:11.049Z,2.20
2023-05-02T18:55:14.685Z,3.33
2023-05-02T18:58:17.831Z,0.75
2023-05-02T19:01:20.631Z,0.85
2023-05-02T19:04:24.158Z,1.17
2023-05-02T19:07:26.961Z,1.25
2023-05-02T19:10:29.298Z,3.80
2023-05-02T19:13:32.196Z,3.15
2023-05-02T19:16:35.381Z,3.08
2023-05-02T19:19:38.538Z,2.70
2023-05-02T19:22:42.270Z,1.08
2023-05-02T19:25:45.656Z,2.22
2023-05-02T19:28:48.969Z,0.90
2023-05-02T19:31:52.485Z,6.45
2023-05-02T19:34:56.061Z,1.30
2023-05-02T19:37:58.932Z,4.55
2023-05-02T19:41:01.806Z,2.50
2023-05-02T19:44:04.370Z,2.33
2023-05-02T19:47:07.435Z,1.08
2023-05-02T19:50:10.381Z,3.63
2023-05-02T19:53:13.284Z,1.52
2023-05-02T19:56:15.948Z,2.25
2023-05-02T19:59:19.195Z,2.35
2023-05-02T20:02:22.400Z,0.93
2023-05-02T20:05:24.723Z,1.45
2023-05-02T20:08:26.988Z,1.60
2023-05-02T20:11:29.585Z,0.90
2023-05-02T20:14:32.334Z,2.97
2023-05-02T20:17:35.524Z,0.95
2023-05-02T20:20:38.567Z,1.52
2023-05-02T20:23:41.912Z,1.08
2023-05-02T20:26:45.398Z,1.58
2023-05-02T20:29:48.077Z,1.27
2023-05-02T20:32:50.797Z,1.20
2023-05-02T20:35:53.012Z,0.63
2023-05-02T20:38:55.276Z,0.43
2023-05-02T20:41:58.061Z,1.08
2023-05-02T20:45:01.615Z,1.38
2023-05-02T20:48:05.232Z,0.52
2023-05-02T20:51:07.297Z,1.50
2023-05-02T20:54:09.783Z,0.80
2023-05-02T20:57:12.758Z,2.63
2023-05-02T21:00:15.939Z,0.73
2023-05-02T21:03:19.139Z,0.82
2023-05-02T21:06:22.290Z,1.70
2023-05-02T21:09:25.244Z,1.10
2023-05-02T21:12:28.157Z,1.33
2023-05-02T21:15:30.735Z,1.00
2023-05-02T21:18:33.565Z,1.98
2023-05-02T21:21:36.245Z,0.90
2023-05-02T21:24:39.471Z,1.90
2023-05-02T21:27:43.010Z,1.77
2023-05-02T21:30:45.893Z,1.23
2023-05-02T21:33:48.880Z,1.10
2023-05-02T21:36:52.127Z,1.85
2023-05-02T21:39:55.215Z,1.13
2023-05-02T21:42:57.930Z,2.53
2023-05-02T21:46:00.460Z,0.52
2023-05-02T21:49:02.948Z,1.98
2023-05-02T21:52:06.272Z,1.25
2023-05-02T21:55:09.506Z,1.10
2023-05-02T21:58:12.362Z,1.02
2023-05-02T22:01:15.893Z,1.67
2023-05-02T22:04:18.936Z,0.70
2023-05-02T22:07:21.973Z,1.63
2023-05-02T22:10:25.298Z,1.40
2023-05-02T22:13:28.025Z,0.80
2023-05-02T22:16:31.866Z,1.55
2023-05-02T22:19:34.937Z,1.25
2023-05-02T22:22:37.151Z,1.88
2023-05-02T22:25:40.359Z,1.75
2023-05-02T22:28:43.939Z,1.70
2023-05-02T22:31:46.649Z,4.18
2023-05-02T22:34:49.790Z,0.65
2023-05-02T22:37:52.542Z,3.53
2023-05-02T22:40:55.807Z,2.22
2023-05-02T22:43:58.793Z,1.48
2023-05-02T22:47:01.094Z,2.10
2023-05-02T22:50:03.877Z,1.23
2023-05-02T22:53:07.139Z,1.15
2023-05-02T22:56:10.474Z,1.10
2023-05-02T22:59:13.681Z,1.15
2023-05-02T23:02:16.722Z,1.33
2023-05-02T23:05:19.497Z,1.45
2023-05-02T23:08:22.619Z,1.02
2023-05-02T23:11:26.095Z,0.73
2023-05-02T23:14:28.103Z,1.20
2023-05-02T23:17:31.345Z,1.33
2023-05-02T23:20:34.298Z,2.47
2023-05-02T23:23:37.207Z,2.22
2023-05-02T23:26:39.987Z,2.13
2023-05-02T23:29:42.769Z,0.73
2023-05-02T23:32:46.233Z,1.77
2023-05-02T23:35:49.332Z,1.15
2023-05-02T23:38:52.402Z,1.13
2023-05-02T23:41:55.198Z,1.88
2023-05-02T23:44:58.177Z,1.35
2023-05-02T23:48:00.559Z,1.80
2023-05-02T23:51:03.449Z,2.63
2023-05-02T23:54:05.961Z,0.93
2023-05-02T23:57:09.274Z,0.90
